This is the latest recevied weather packets stored in our database for station/object AC0MR. If no packets are shown the sender has not sent any weather packets the latest 1 day(s).
| Time | Temp. | Humidity | Pressure | Rain* | Wind** | Luminosity | Snow |
|---|---|---|---|---|---|---|---|
| 1778012119 | 15.56° C | 38% | 1008.8 hPa | 0 mm | 1.34 m/s, 248° | 629 W/m² | - |
| 1778011519 | 15.56° C | 35% | 1009.2 hPa | 0 mm | 3.13 m/s, 293° | 816 W/m² | - |
| 1778010919 | 15° C | 38% | 1009.3 hPa | 0 mm | 1.79 m/s, 248° | 672 W/m² | - |
| 1778010318 | 14.44° C | 34% | 1009.5 hPa | 0 mm | 1.79 m/s, 248° | 663 W/m² | - |
| 1778009719 | 14.44° C | 38% | 1009.5 hPa | 0 mm | 2.68 m/s, 225° | 692 W/m² | - |
| 1778009119 | 14.44° C | 35% | 1009.5 hPa | 0 mm | 2.68 m/s, 270° | 369 W/m² | - |
| 1778008518 | 14.44° C | 37% | 1009.7 hPa | 0 mm | 2.24 m/s, 248° | 522 W/m² | - |
| 1778007919 | 14.44° C | 34% | 1009.8 hPa | 0 mm | 1.79 m/s, 270° | 406 W/m² | - |
| 1778007318 | 15° C | 35% | 1010.1 hPa | 0 mm | 3.13 m/s, 248° | 631 W/m² | - |
| 1778006718 | 15° C | 33% | 1009.9 hPa | 0 mm | 2.24 m/s, 293° | 463 W/m² | - |
| 1778006118 | 15° C | 37% | 1009.9 hPa | 0 mm | 2.68 m/s, 248° | 874 W/m² | - |
| 1778005518 | 15° C | 37% | 1009.9 hPa | 0 mm | 2.68 m/s, 270° | 774 W/m² | - |
| 1778004918 | 14.44° C | 38% | 1010 hPa | 0 mm | 1.79 m/s, 225° | 938 W/m² | - |
| 1778004319 | 13.89° C | 39% | 1010 hPa | 0 mm | 2.24 m/s, 248° | 793 W/m² | - |
| 1778003718 | 13.89° C | 39% | 1010.2 hPa | 0 mm | 2.24 m/s, 248° | 886 W/m² | - |
| 1778003118 | 13.89° C | 37% | 1010.2 hPa | 0 mm | 3.58 m/s, 293° | 953 W/m² | - |
| 1778002518 | 13.89° C | 38% | 1010.3 hPa | 0 mm | 2.68 m/s, 248° | 814 W/m² | - |
| 1778001918 | 13.33° C | 39% | 1010.3 hPa | 0 mm | 2.68 m/s, 293° | 780 W/m² | - |
| 1778001318 | 13.33° C | 37% | 1010.2 hPa | 0 mm | 1.79 m/s, 270° | 582 W/m² | - |
| 1778000718 | 13.33° C | 40% | 1010.2 hPa | 0 mm | 1.34 m/s, 248° | 420 W/m² | - |
| 1778000118 | 13.33° C | 39% | 1010.3 hPa | 0 mm | 2.24 m/s, 270° | 596 W/m² | - |
| 1777999518 | 12.78° C | 38% | 1010.2 hPa | 0 mm | 1.79 m/s, 248° | 741 W/m² | - |
| 1777998918 | 12.78° C | 39% | 1010.4 hPa | 0 mm | 1.79 m/s, 248° | 595 W/m² | - |
| 1777998325 | 12.22° C | 38% | 1010 hPa | 0 mm | 1.79 m/s, 293° | 800 W/m² | - |
| 1777997718 | 12.22° C | 39% | 1010.2 hPa | 0 mm | 2.24 m/s, 270° | 602 W/m² | - |
* Rain latest hour (hover to see other rain measurements)
** Current wind speed in m/s (hover to see current wind gust speed)